createdAt,value
2018-12-22T00:00:51.582Z,79.02
2018-12-22T00:01:51.567Z,78.71
2018-12-22T00:02:51.554Z,78.41
2018-12-22T00:03:51.541Z,78.41
2018-12-22T00:04:51.531Z,79.33
2018-12-22T00:05:51.525Z,79.33
2018-12-22T00:06:51.509Z,78.27
2018-12-22T00:07:51.497Z,78.41
2018-12-22T00:08:51.486Z,78.41
2018-12-22T00:11:51.454Z,78.41
2018-12-22T00:12:51.441Z,78.51
2018-12-22T00:13:51.436Z,78.20
2018-12-22T00:15:51.404Z,77.89
2018-12-22T00:17:51.391Z,77.49
2018-12-22T00:18:51.372Z,77.79
2018-12-22T00:19:51.359Z,77.49
2018-12-22T00:20:51.351Z,77.59
2018-12-22T00:21:51.344Z,77.89
2018-12-22T00:22:51.326Z,77.69
2018-12-22T00:23:51.312Z,77.59
2018-12-22T00:24:51.304Z,77.89
2018-12-22T00:25:51.288Z,76.97
2018-12-22T00:26:51.278Z,77.18
2018-12-22T00:27:51.268Z,77.28
2018-12-22T00:28:51.262Z,77.89
2018-12-22T00:29:51.247Z,77.28
2018-12-22T00:30:51.237Z,77.69
2018-12-22T00:32:51.208Z,77.59
2018-12-22T00:33:51.196Z,77.59
2018-12-22T00:34:51.183Z,77.89
2018-12-22T00:35:51.174Z,77.49
2018-12-22T00:36:51.162Z,77.69
2018-12-22T00:37:51.150Z,77.69
2018-12-22T00:41:51.107Z,78.61
2018-12-22T00:42:51.091Z,77.69
2018-12-22T00:43:51.081Z,77.08
2018-12-22T00:44:51.070Z,77.18
2018-12-22T00:46:51.050Z,76.19
2018-12-22T00:47:51.034Z,76.87
2018-12-22T00:49:51.011Z,78.10
2018-12-22T00:50:50.999Z,77.69
2018-12-22T00:51:50.990Z,77.59
2018-12-22T00:52:50.976Z,77.59
2018-12-22T00:54:50.953Z,77.49
2018-12-22T00:57:50.919Z,78.41
2018-12-22T00:59:50.896Z,78.24
2018-12-22T01:00:50.882Z,78.10
2018-12-22T01:01:50.874Z,78.10
2018-12-22T01:02:50.863Z,78.03
2018-12-22T01:04:50.843Z,78.24
2018-12-22T01:05:50.848Z,78.34
2018-12-22T01:06:52.735Z,77.72
2018-12-22T01:07:50.858Z,77.72
2018-12-22T01:08:50.795Z,77.52
2018-12-22T01:09:50.797Z,77.72
2018-12-22T01:10:50.800Z,77.31
2018-12-22T01:11:50.804Z,77.52
2018-12-22T01:12:50.742Z,77.31
2018-12-22T01:14:50.719Z,77.01
2018-12-22T01:15:50.723Z,77.11
2018-12-22T01:17:50.687Z,76.70
2018-12-22T01:18:50.676Z,76.30
2018-12-22T01:19:50.661Z,75.99
2018-12-22T01:20:50.649Z,75.37
2018-12-22T01:23:50.620Z,72.71
2018-12-22T01:24:50.604Z,72.00
2018-12-22T01:25:50.591Z,71.59
2018-12-22T01:28:50.556Z,69.24
2018-12-22T01:29:50.546Z,68.52
2018-12-22T01:32:50.513Z,68.01
2018-12-22T01:43:50.382Z,68.93
2018-12-22T01:54:50.253Z,70.77
2018-12-22T02:00:50.182Z,70.70
2018-12-22T02:06:50.113Z,70.50
2018-12-22T02:24:49.901Z,71.14
2018-12-22T02:26:49.878Z,70.22
2018-12-22T02:33:14.297Z,70.63
2018-12-22T03:09:13.911Z,69.13
2018-12-22T03:43:13.524Z,71.00
2018-12-22T03:47:13.475Z,71.11
2018-12-22T03:51:13.433Z,71.21
2018-12-22T04:02:13.315Z,70.29
2018-12-22T04:20:13.111Z,69.98
2018-12-22T04:45:12.840Z,69.19
2018-12-22T04:48:12.810Z,68.68
2018-12-22T04:51:12.774Z,68.78
2018-12-22T04:52:12.764Z,68.99
2018-12-22T04:57:12.709Z,68.68
2018-12-22T05:14:12.538Z,68.89
2018-12-22T05:28:12.475Z,70.66
2018-12-22T05:34:12.306Z,70.56
2018-12-22T05:43:12.209Z,70.45
2018-12-22T05:47:12.170Z,70.05
2018-12-22T05:56:12.070Z,70.87
2018-12-22T05:57:12.073Z,70.87
2018-12-22T06:04:11.982Z,70.56
2018-12-22T06:07:11.951Z,70.25
2018-12-22T06:08:11.943Z,70.25
2018-12-22T06:16:11.883Z,69.84
2018-12-22T06:22:11.840Z,69.98
2018-12-22T06:29:11.713Z,70.28
2018-12-22T06:33:11.675Z,69.77
2018-12-22T06:35:11.647Z,69.77
2018-12-22T06:36:11.640Z,70.49
2018-12-22T06:37:11.625Z,70.08
2018-12-22T06:38:11.712Z,70.18
2018-12-22T06:40:11.600Z,70.05
2018-12-22T06:41:11.582Z,69.84
2018-12-22T06:42:11.576Z,69.74
2018-12-22T06:43:11.566Z,69.94
2018-12-22T06:44:11.550Z,70.05
2018-12-22T06:45:11.542Z,69.94
2018-12-22T06:46:11.542Z,70.08
2018-12-22T06:47:11.517Z,69.94
2018-12-22T06:48:11.506Z,70.39
2018-12-22T06:49:11.494Z,70.08
2018-12-22T06:50:11.498Z,70.39
2018-12-22T06:51:11.476Z,70.28
2018-12-22T06:52:11.464Z,70.08
2018-12-22T06:53:11.460Z,70.49
2018-12-22T06:54:11.476Z,70.39
2018-12-22T06:55:11.429Z,70.49
2018-12-22T06:56:11.421Z,70.28
2018-12-22T06:57:11.408Z,70.39
2018-12-22T06:58:11.396Z,70.28
2018-12-22T06:59:11.385Z,69.98
2018-12-22T07:00:17.659Z,70.49
2018-12-22T07:01:35.847Z,70.49
2018-12-22T07:02:35.830Z,70.49
2018-12-22T07:03:35.821Z,70.08
2018-12-22T07:04:35.831Z,70.59
2018-12-22T07:05:35.797Z,70.18
2018-12-22T07:06:35.792Z,69.77
2018-12-22T07:07:35.777Z,70.28
2018-12-22T07:08:35.761Z,70.08
2018-12-22T07:09:35.750Z,70.49
2018-12-22T07:10:35.742Z,70.28
2018-12-22T07:11:35.728Z,70.69
2018-12-22T07:12:35.717Z,71.31
2018-12-22T07:13:35.715Z,71.52
2018-12-22T07:14:35.715Z,71.62
2018-12-22T07:15:35.683Z,71.20
2018-12-22T07:16:35.695Z,70.90
2018-12-22T07:17:35.664Z,71.31
2018-12-22T07:18:35.687Z,71.82
2018-12-22T07:19:35.640Z,71.82
2018-12-22T07:20:35.633Z,71.92
2018-12-22T07:21:35.618Z,71.62
2018-12-22T07:22:35.648Z,71.41
2018-12-22T07:23:35.595Z,71.11
2018-12-22T07:24:35.632Z,71.31
2018-12-22T07:25:35.572Z,71.62
2018-12-22T07:26:35.591Z,71.62
2018-12-22T07:27:35.555Z,71.31
2018-12-22T07:28:35.538Z,71.52
2018-12-22T07:29:35.533Z,71.62
2018-12-22T07:30:35.517Z,71.31
2018-12-22T07:31:35.510Z,71.52
2018-12-22T07:32:35.493Z,71.31
2018-12-22T07:33:35.484Z,71.31
2018-12-22T07:34:35.475Z,71.72
2018-12-22T07:35:35.462Z,71.62
2018-12-22T07:36:35.450Z,71.31
2018-12-22T07:37:35.439Z,71.72
2018-12-22T07:38:35.428Z,71.62
2018-12-22T07:39:35.419Z,71.20
2018-12-22T07:40:35.406Z,71.52
2018-12-22T07:41:35.402Z,71.52
2018-12-22T07:42:35.389Z,71.20
2018-12-22T07:43:35.377Z,71.20
2018-12-22T07:44:35.369Z,71.31
2018-12-22T07:45:35.353Z,71.52
2018-12-22T07:46:35.340Z,71.86
2018-12-22T07:47:35.335Z,71.86
2018-12-22T07:48:35.317Z,72.06
2018-12-22T07:49:35.305Z,72.06
2018-12-22T07:50:35.295Z,72.03
2018-12-22T07:51:35.283Z,71.72
2018-12-22T07:52:35.273Z,72.03
2018-12-22T07:53:35.261Z,71.62
2018-12-22T07:54:35.248Z,71.31
2018-12-22T07:55:35.247Z,71.92
2018-12-22T07:56:35.226Z,71.72
2018-12-22T07:57:35.218Z,71.92
2018-12-22T07:58:35.203Z,72.44
2018-12-22T07:59:35.192Z,72.24
2018-12-22T08:00:35.355Z,72.33
2018-12-22T08:01:35.169Z,72.44
2018-12-22T08:02:35.158Z,72.44
2018-12-22T08:03:35.147Z,72.03
2018-12-22T08:04:35.138Z,72.13
2018-12-22T08:05:38.968Z,72.03
2018-12-22T08:06:35.115Z,72.13
2018-12-22T08:07:35.105Z,72.24
2018-12-22T08:08:35.092Z,72.03
2018-12-22T08:09:35.085Z,73.26
2018-12-22T08:10:35.073Z,72.99
2018-12-22T08:11:35.060Z,73.05
2018-12-22T08:12:35.049Z,73.05
2018-12-22T08:13:35.037Z,73.50
2018-12-22T08:14:35.029Z,73.70
2018-12-22T08:15:35.015Z,73.26
2018-12-22T08:16:35.003Z,73.26
2018-12-22T08:17:34.992Z,72.95
2018-12-22T08:18:34.982Z,73.26
2018-12-22T08:19:34.969Z,73.67
2018-12-22T08:20:34.965Z,73.57
2018-12-22T08:21:34.946Z,73.67
2018-12-22T08:22:34.935Z,73.67
2018-12-22T08:23:34.924Z,73.36
2018-12-22T08:24:34.911Z,73.88
2018-12-22T08:25:34.910Z,74.08
2018-12-22T08:26:34.889Z,74.49
2018-12-22T08:27:34.879Z,74.49
2018-12-22T08:28:34.869Z,74.39
2018-12-22T08:29:34.857Z,75.35
2018-12-22T08:30:43.309Z,75.52
2018-12-22T08:31:59.313Z,75.62
2018-12-22T08:32:59.305Z,75.62
2018-12-22T08:33:59.296Z,75.31
2018-12-22T08:34:59.279Z,75.83
2018-12-22T08:35:59.266Z,76.03
2018-12-22T08:36:59.256Z,75.83
2018-12-22T08:37:59.243Z,75.93
2018-12-22T08:38:59.232Z,75.86
2018-12-22T08:39:59.219Z,76.78
2018-12-22T08:40:59.213Z,76.68
2018-12-22T08:41:59.203Z,76.89
2018-12-22T08:42:59.187Z,77.19
2018-12-22T08:43:59.178Z,76.99
2018-12-22T08:44:59.165Z,77.09
2018-12-22T08:45:59.156Z,76.99
2018-12-22T08:46:59.143Z,77.19
2018-12-22T08:47:59.138Z,77.06
2018-12-22T08:48:59.121Z,77.19
2018-12-22T08:49:59.109Z,77.19
2018-12-22T08:50:59.106Z,76.89
2018-12-22T08:51:59.095Z,77.09
2018-12-22T08:52:59.082Z,77.09
2018-12-22T08:53:59.072Z,77.30
2018-12-22T08:54:59.062Z,77.30
2018-12-22T08:55:59.051Z,77.19
2018-12-22T08:56:59.039Z,77.09
2018-12-22T08:57:59.025Z,77.09
2018-12-22T08:58:59.017Z,77.09
2018-12-22T08:59:59.000Z,76.58
2018-12-22T09:00:58.995Z,76.58
2018-12-22T09:01:58.983Z,76.06
2018-12-22T09:02:58.968Z,75.72
2018-12-22T09:03:58.955Z,76.03
2018-12-22T09:04:58.943Z,75.52
2018-12-22T09:05:58.934Z,75.21
2018-12-22T09:06:58.921Z,75.00
2018-12-22T09:07:58.912Z,75.72
2018-12-22T09:08:58.901Z,75.10
2018-12-22T09:09:58.892Z,75.52
2018-12-22T09:10:58.881Z,75.10
2018-12-22T09:11:58.873Z,75.10
2018-12-22T09:12:58.855Z,75.10
2018-12-22T09:13:58.842Z,75.52
2018-12-22T09:14:58.832Z,75.00
2018-12-22T09:15:58.831Z,75.31
2018-12-22T09:16:58.809Z,74.97
2018-12-22T09:17:58.803Z,75.21
2018-12-22T09:18:58.786Z,75.62
2018-12-22T09:19:58.777Z,75.62
2018-12-22T09:20:58.770Z,75.31
2018-12-22T09:21:58.755Z,75.62
2018-12-22T09:22:58.743Z,75.00
2018-12-22T09:23:58.736Z,75.10
2018-12-22T09:24:58.722Z,75.83
2018-12-22T09:25:58.713Z,75.52
2018-12-22T09:26:58.701Z,75.42
2018-12-22T09:27:58.690Z,75.62
2018-12-22T09:28:58.680Z,75.42
2018-12-22T09:29:58.664Z,75.10
2018-12-22T09:31:00.857Z,75.21
2018-12-22T09:31:58.643Z,75.31
2018-12-22T09:32:58.631Z,75.62
2018-12-22T09:33:58.621Z,75.10
2018-12-22T09:34:58.617Z,75.21
2018-12-22T09:35:58.605Z,75.04
2018-12-22T09:36:58.588Z,75.31
2018-12-22T09:37:58.578Z,75.52
2018-12-22T09:38:58.565Z,75.31
2018-12-22T09:39:58.554Z,74.59
2018-12-22T09:40:58.594Z,75.52
2018-12-22T09:41:58.531Z,75.00
2018-12-22T09:42:58.526Z,74.08
2018-12-22T09:43:58.510Z,74.70
2018-12-22T09:44:58.500Z,74.49
2018-12-22T09:45:58.494Z,74.73
2018-12-22T09:46:58.479Z,75.45
2018-12-22T09:47:58.573Z,74.49
2018-12-22T09:48:58.456Z,74.73
2018-12-22T09:49:58.445Z,74.84
2018-12-22T09:50:58.434Z,75.25
2018-12-22T09:51:58.421Z,75.45
2018-12-22T09:52:58.412Z,75.14
2018-12-22T09:53:58.400Z,74.73
2018-12-22T09:54:58.392Z,75.35
2018-12-22T09:55:58.380Z,75.14
2018-12-22T09:56:58.371Z,75.45
2018-12-22T09:57:58.361Z,75.25
2018-12-22T09:58:58.346Z,75.55
2018-12-22T09:59:58.340Z,75.04
2018-12-22T10:00:58.323Z,75.65
2018-12-22T10:01:58.319Z,75.55
2018-12-22T10:02:58.310Z,75.76
2018-12-22T10:03:58.291Z,74.56
2018-12-22T10:04:58.279Z,74.76
2018-12-22T10:05:58.268Z,75.18
2018-12-22T10:06:58.260Z,75.04
2018-12-22T10:07:58.249Z,73.95
2018-12-22T10:08:58.236Z,73.29
2018-12-22T10:09:58.225Z,72.99
2018-12-22T10:10:58.214Z,73.60
2018-12-22T10:11:58.202Z,72.33
2018-12-22T10:12:58.191Z,72.24
2018-12-22T10:13:58.186Z,71.82
2018-12-22T10:14:58.171Z,71.82
2018-12-22T10:15:58.166Z,71.41
2018-12-22T10:16:58.149Z,71.69
2018-12-22T10:17:58.139Z,71.11
2018-12-22T10:18:58.127Z,69.87
2018-12-22T10:19:58.120Z,70.18
2018-12-22T10:20:58.108Z,70.49
2018-12-22T10:21:58.094Z,70.69
2018-12-22T10:22:58.082Z,69.47
2018-12-22T10:23:58.072Z,68.75
2018-12-22T10:24:58.060Z,68.85
2018-12-22T10:25:58.051Z,68.85
2018-12-22T10:26:58.037Z,68.95
2018-12-22T10:27:58.027Z,69.15
2018-12-22T10:28:58.016Z,68.95
2018-12-22T10:29:58.005Z,69.26
2018-12-22T10:30:57.994Z,69.47
2018-12-22T10:31:57.985Z,68.02
2018-12-22T10:32:57.972Z,68.43
2018-12-22T10:33:57.960Z,68.26
2018-12-22T10:34:57.948Z,68.98
2018-12-22T10:35:57.945Z,68.47
2018-12-22T10:36:57.925Z,68.78
2018-12-22T10:37:57.915Z,68.78
2018-12-22T10:38:57.909Z,68.88
2018-12-22T10:39:57.893Z,68.13
2018-12-22T10:40:57.881Z,68.02
2018-12-22T10:41:57.872Z,67.82
2018-12-22T10:42:57.858Z,68.02
2018-12-22T10:43:57.848Z,67.21
2018-12-22T10:44:57.842Z,68.02
2018-12-22T10:45:57.830Z,67.21
2018-12-22T10:46:57.815Z,67.00
2018-12-22T10:47:57.821Z,66.59
2018-12-22T10:48:57.795Z,66.59
2018-12-22T10:49:57.802Z,66.41
2018-12-22T10:50:57.801Z,66.52
2018-12-22T10:51:57.806Z,66.28
2018-12-22T10:52:57.748Z,65.97
2018-12-22T10:53:57.749Z,66.28
2018-12-22T10:54:57.752Z,66.21
2018-12-22T10:55:57.753Z,65.97
2018-12-22T10:56:57.761Z,66.41
2018-12-22T10:57:59.882Z,66.93
2018-12-22T10:58:57.686Z,65.60
2018-12-22T10:59:57.667Z,65.67
2018-12-22T11:00:57.658Z,65.67
2018-12-22T11:01:57.649Z,65.97
2018-12-22T11:02:57.632Z,66.21
2018-12-22T11:03:57.622Z,65.70
2018-12-22T11:04:57.610Z,65.67
2018-12-22T11:05:57.602Z,66.08
2018-12-22T11:06:57.591Z,65.08
2018-12-22T11:07:57.576Z,65.57
2018-12-22T11:08:57.567Z,65.53
2018-12-22T11:09:57.553Z,65.15
2018-12-22T11:10:57.542Z,65.05
2018-12-22T11:11:57.537Z,65.25
2018-12-22T11:12:57.523Z,65.67
2018-12-22T11:13:57.510Z,65.77
2018-12-22T11:14:57.498Z,66.69
2018-12-22T11:15:57.487Z,65.97
2018-12-22T11:16:57.480Z,66.59
2018-12-22T11:17:57.468Z,66.49
2018-12-22T11:18:57.457Z,65.57
2018-12-22T11:19:57.454Z,65.97
2018-12-22T11:20:57.433Z,65.57
2018-12-22T11:21:57.418Z,65.97
2018-12-22T11:22:57.408Z,65.25
2018-12-22T11:23:57.400Z,65.87
2018-12-22T11:24:57.384Z,65.77
2018-12-22T11:25:57.378Z,65.67
2018-12-22T11:26:57.365Z,66.52
2018-12-22T11:27:57.352Z,66.69
2018-12-22T11:28:57.344Z,66.31
2018-12-22T11:29:57.330Z,66.52
2018-12-22T11:30:57.318Z,67.03
2018-12-22T11:31:57.308Z,67.31
2018-12-22T11:32:57.296Z,66.79
2018-12-22T11:33:57.288Z,66.38
2018-12-22T11:34:57.281Z,66.46
2018-12-22T11:35:57.261Z,66.38
2018-12-22T11:36:57.256Z,65.94
2018-12-22T11:37:57.245Z,65.33
2018-12-22T11:38:57.232Z,65.94
2018-12-22T11:39:57.218Z,66.05
2018-12-22T11:40:57.206Z,65.74
2018-12-22T11:41:57.201Z,65.64
2018-12-22T11:42:57.183Z,66.05
2018-12-22T11:43:57.170Z,65.74
2018-12-22T11:44:57.161Z,65.74
2018-12-22T11:45:57.149Z,65.84
2018-12-22T11:46:57.142Z,65.53
2018-12-22T11:47:57.127Z,65.64
2018-12-22T11:48:57.119Z,66.38
2018-12-22T11:49:57.108Z,66.18
2018-12-22T11:50:57.090Z,66.38
2018-12-22T11:51:57.081Z,66.38
2018-12-22T11:52:57.076Z,66.18
2018-12-22T11:53:57.057Z,66.69
2018-12-22T11:54:57.044Z,66.28
2018-12-22T11:55:57.033Z,66.38
2018-12-22T11:56:57.023Z,66.18
2018-12-22T11:57:57.016Z,65.67
2018-12-22T11:58:57.000Z,65.74
2018-12-22T11:59:56.991Z,65.84
2018-12-22T12:00:56.978Z,66.25
2018-12-22T12:01:56.967Z,66.38
2018-12-22T12:02:56.956Z,66.59
2018-12-22T12:03:56.949Z,66.56
2018-12-22T12:04:56.934Z,66.38
2018-12-22T12:05:56.924Z,65.87
2018-12-22T12:06:57.030Z,66.38
2018-12-22T12:07:56.901Z,65.87
2018-12-22T12:08:56.898Z,65.36
2018-12-22T12:09:56.885Z,65.77
2018-12-22T12:10:56.867Z,65.25
2018-12-22T12:11:56.856Z,66.38
2018-12-22T12:12:56.851Z,65.97
2018-12-22T12:13:56.841Z,66.69
2018-12-22T12:14:56.826Z,65.87
2018-12-22T12:15:56.815Z,65.87
2018-12-22T12:16:56.802Z,65.77
2018-12-22T12:17:56.791Z,65.77
2018-12-22T12:18:56.782Z,66.38
2018-12-22T12:19:56.771Z,66.49
2018-12-22T12:20:56.760Z,66.38
2018-12-22T12:21:56.747Z,66.08
2018-12-22T12:22:56.742Z,66.28
2018-12-22T12:23:56.725Z,66.15
2018-12-22T12:24:56.714Z,65.36
2018-12-22T12:25:56.703Z,65.15
2018-12-22T12:26:56.694Z,65.18
2018-12-22T12:27:56.681Z,65.18
2018-12-22T12:28:56.678Z,64.36
2018-12-22T12:29:56.659Z,64.56
2018-12-22T12:30:56.653Z,65.28
2018-12-22T12:31:56.645Z,65.08
2018-12-22T12:32:56.631Z,64.50
2018-12-22T12:33:56.615Z,65.11
2018-12-22T12:34:56.604Z,64.50
2018-12-22T12:35:56.593Z,65.52
2018-12-22T12:36:56.583Z,65.01
2018-12-22T12:37:56.573Z,64.29
2018-12-22T12:38:56.560Z,64.59
2018-12-22T12:39:56.555Z,65.01
2018-12-22T12:40:56.538Z,64.98
2018-12-22T12:41:56.527Z,65.08
2018-12-22T12:42:56.517Z,64.26
2018-12-22T12:43:56.507Z,64.91
2018-12-22T12:44:56.495Z,64.29
2018-12-22T12:45:56.579Z,64.19
2018-12-22T12:46:56.478Z,65.11
2018-12-22T12:47:56.463Z,64.67
2018-12-22T12:48:56.450Z,64.16
2018-12-22T12:49:56.442Z,63.64
2018-12-22T12:50:56.434Z,63.54
2018-12-22T12:51:56.417Z,63.03
2018-12-22T12:52:56.408Z,63.54
2018-12-22T12:53:56.427Z,63.75
2018-12-22T12:54:56.387Z,63.43
2018-12-22T12:55:56.384Z,63.75
2018-12-22T12:56:56.361Z,63.54
2018-12-22T12:57:56.350Z,64.16
2018-12-22T12:58:56.340Z,64.29
2018-12-22T12:59:56.328Z,64.36
2018-12-22T13:00:56.316Z,63.88
2018-12-22T13:02:01.015Z,64.19
2018-12-22T13:02:56.395Z,65.01
2018-12-22T13:03:56.286Z,64.91
2018-12-22T13:04:56.275Z,64.59
2018-12-22T13:05:56.262Z,64.91
2018-12-22T13:06:56.251Z,65.11
2018-12-22T13:07:56.240Z,65.11
2018-12-22T13:08:56.244Z,65.11
2018-12-22T13:09:56.223Z,65.01
2018-12-22T13:10:56.206Z,65.11
2018-12-22T13:11:56.201Z,65.01
2018-12-22T13:12:56.183Z,64.91
2018-12-22T13:13:56.178Z,65.11
2018-12-22T13:14:56.164Z,65.01
2018-12-22T13:15:56.151Z,65.21
2018-12-22T13:16:56.140Z,65.31
2018-12-22T13:17:56.129Z,65.24
2018-12-22T13:18:56.124Z,65.76
2018-12-22T13:19:56.113Z,65.86
2018-12-22T13:20:56.101Z,65.86
2018-12-22T13:21:56.086Z,65.76
2018-12-22T13:22:56.079Z,65.79
2018-12-22T13:23:56.064Z,66.17
2018-12-22T13:24:56.051Z,66.61
2018-12-22T13:25:56.040Z,67.09
2018-12-22T13:26:56.029Z,67.23
2018-12-22T13:27:56.019Z,67.12
2018-12-22T13:28:56.007Z,67.33
2018-12-22T13:29:56.001Z,67.09
2018-12-22T13:30:55.994Z,67.43
2018-12-22T13:31:55.978Z,67.02
2018-12-22T13:32:56.411Z,67.02
2018-12-22T13:33:55.955Z,66.99
2018-12-22T13:34:55.946Z,66.58
2018-12-22T13:35:55.933Z,67.54
2018-12-22T13:36:55.929Z,67.74
2018-12-22T13:37:55.916Z,68.15
2018-12-22T13:38:55.903Z,67.64
2018-12-22T13:39:55.896Z,68.29
2018-12-22T13:40:55.878Z,67.95
2018-12-22T13:41:55.870Z,67.54
2018-12-22T13:42:55.854Z,68.29
2018-12-22T13:43:55.844Z,68.18
2018-12-22T13:44:55.838Z,68.18
2018-12-22T13:45:55.821Z,68.05
2018-12-22T13:46:55.814Z,67.98
2018-12-22T13:47:55.998Z,68.08
2018-12-22T13:48:56.075Z,68.15
2018-12-22T13:49:55.855Z,67.16
2018-12-22T13:50:56.126Z,66.71
2018-12-22T13:51:55.753Z,67.12
2018-12-22T13:52:55.745Z,67.02
2018-12-22T13:53:55.732Z,66.71
2018-12-22T13:54:55.722Z,66.41
2018-12-22T13:55:55.709Z,67.02
2018-12-22T13:56:55.702Z,66.51
2018-12-22T13:57:55.692Z,67.02
2018-12-22T13:58:55.679Z,67.12
2018-12-22T13:59:55.667Z,67.64
2018-12-22T14:00:55.656Z,67.02
2018-12-22T14:01:55.645Z,67.43
2018-12-22T14:02:55.634Z,67.23
2018-12-22T14:03:55.625Z,67.33
2018-12-22T14:04:55.611Z,67.23
2018-12-22T14:05:55.601Z,67.43
2018-12-22T14:06:55.590Z,67.23
2018-12-22T14:07:55.583Z,67.64
2018-12-22T14:08:55.568Z,67.54
2018-12-22T14:09:55.560Z,67.23
2018-12-22T14:10:55.547Z,67.23
2018-12-22T14:11:55.535Z,66.71
2018-12-22T14:12:55.524Z,67.43
2018-12-22T14:13:55.514Z,67.54
2018-12-22T14:14:55.501Z,67.54
2018-12-22T14:15:55.492Z,67.54
2018-12-22T14:16:55.480Z,67.23
2018-12-22T14:17:55.471Z,67.33
2018-12-22T14:18:55.458Z,67.12
2018-12-22T14:19:55.445Z,67.54
2018-12-22T14:20:55.434Z,67.67
2018-12-22T14:21:55.426Z,67.74
2018-12-22T14:22:55.412Z,67.74
2018-12-22T14:23:55.401Z,67.54
2018-12-22T14:24:55.394Z,67.74
2018-12-22T14:25:55.378Z,67.84
2018-12-22T14:26:55.369Z,67.43
2018-12-22T14:27:55.357Z,67.54
2018-12-22T14:28:55.353Z,67.64
2018-12-22T14:29:55.335Z,67.43
2018-12-22T14:30:55.324Z,67.54
2018-12-22T14:31:55.314Z,67.54
2018-12-22T14:32:55.304Z,67.02
2018-12-22T14:33:55.294Z,67.54
2018-12-22T14:34:55.291Z,67.12
2018-12-22T14:35:55.273Z,67.12
2018-12-22T14:36:55.258Z,67.23
2018-12-22T14:37:55.248Z,67.43
2018-12-22T14:38:55.236Z,67.33
2018-12-22T14:39:55.224Z,67.74
2018-12-22T14:40:55.215Z,67.43
2018-12-22T14:41:55.209Z,67.64
2018-12-22T14:42:55.192Z,67.23
2018-12-22T14:43:55.183Z,67.33
2018-12-22T14:44:55.179Z,67.43
2018-12-22T14:45:55.168Z,67.54
2018-12-22T14:46:55.151Z,67.74
2018-12-22T14:47:55.139Z,67.74
2018-12-22T14:48:55.129Z,67.64
2018-12-22T14:49:55.116Z,68.05
2018-12-22T14:50:55.106Z,68.15
2018-12-22T14:51:55.093Z,67.95
2018-12-22T14:52:55.085Z,68.05
2018-12-22T14:53:55.071Z,68.05
2018-12-22T14:54:55.060Z,67.77
2018-12-22T14:55:55.103Z,67.84
2018-12-22T14:56:55.039Z,68.05
2018-12-22T14:57:55.028Z,68.26
2018-12-22T14:58:55.019Z,67.74
2018-12-22T14:59:55.010Z,68.08
2018-12-22T15:00:54.996Z,67.95
2018-12-22T15:01:54.987Z,68.15
2018-12-22T15:02:54.975Z,68.15
2018-12-22T15:03:54.969Z,67.84
2018-12-22T15:04:54.952Z,68.26
2018-12-22T15:05:54.939Z,68.08
2018-12-22T15:06:54.927Z,67.98
2018-12-22T15:07:54.918Z,68.15
2018-12-22T15:08:54.911Z,68.15
2018-12-22T15:09:54.900Z,68.36
2018-12-22T15:10:54.883Z,68.36
2018-12-22T15:11:54.872Z,68.05
2018-12-22T15:12:54.865Z,68.15
2018-12-22T15:13:54.849Z,68.05
2018-12-22T15:14:54.837Z,68.46
2018-12-22T15:15:54.836Z,67.84
2018-12-22T15:16:54.820Z,68.05
2018-12-22T15:17:54.807Z,68.05
2018-12-22T15:18:54.793Z,67.54
2018-12-22T15:19:54.788Z,67.95
2018-12-22T15:20:54.773Z,68.36
2018-12-22T15:21:54.762Z,68.36
2018-12-22T15:22:54.748Z,68.05
2018-12-22T15:23:54.738Z,68.46
2018-12-22T15:24:54.726Z,68.77
2018-12-22T15:25:54.731Z,68.05
2018-12-22T15:26:54.705Z,68.26
2018-12-22T15:27:54.693Z,68.05
2018-12-22T15:28:54.689Z,68.05
2018-12-22T15:29:54.671Z,67.95
2018-12-22T15:30:54.663Z,68.05
2018-12-22T15:31:54.648Z,68.77
2018-12-22T15:32:55.061Z,68.70
2018-12-22T15:33:54.627Z,68.49
2018-12-22T15:34:54.615Z,69.14
2018-12-22T15:35:54.605Z,69.11
2018-12-22T15:36:54.593Z,69.01
2018-12-22T15:37:54.582Z,69.11
2018-12-22T15:38:54.573Z,69.45
2018-12-22T15:39:54.569Z,69.45
2018-12-22T15:40:54.549Z,69.35
2018-12-22T15:41:54.536Z,69.62
2018-12-22T15:42:54.531Z,69.42
2018-12-22T15:43:54.514Z,69.45
2018-12-22T15:44:54.504Z,69.01
2018-12-22T15:45:54.492Z,69.11
2018-12-22T15:46:54.479Z,68.90
2018-12-22T15:47:54.470Z,68.80
2018-12-22T15:48:54.457Z,69.55
2018-12-22T15:49:54.450Z,69.21
2018-12-22T15:50:54.439Z,68.90
2018-12-22T15:51:54.424Z,68.90
2018-12-22T15:52:54.414Z,68.90
2018-12-22T15:53:54.403Z,68.70
2018-12-22T15:54:54.392Z,68.80
2018-12-22T15:55:54.386Z,68.70
2018-12-22T15:56:54.373Z,68.90
2018-12-22T15:57:54.357Z,68.70
2018-12-22T15:58:54.347Z,69.01
2018-12-22T15:59:54.336Z,69.11
2018-12-22T16:00:54.325Z,69.08
2018-12-22T16:01:54.317Z,69.11
2018-12-22T16:02:54.302Z,68.59
2018-12-22T16:03:54.291Z,68.70
2018-12-22T16:04:54.282Z,68.36
2018-12-22T16:05:54.267Z,68.18
2018-12-22T16:06:54.262Z,68.80
2018-12-22T16:07:54.245Z,68.70
2018-12-22T16:08:54.235Z,69.01
2018-12-22T16:09:54.227Z,69.11
2018-12-22T16:10:54.213Z,68.56
2018-12-22T16:11:54.205Z,68.67
2018-12-22T16:12:54.194Z,68.67
2018-12-22T16:13:54.179Z,68.77
2018-12-22T16:14:54.171Z,68.80
2018-12-22T16:15:54.159Z,68.70
2018-12-22T16:16:54.146Z,68.90
2018-12-22T16:17:54.143Z,68.87
2018-12-22T16:18:54.131Z,68.46
2018-12-22T16:19:54.120Z,69.01
2018-12-22T16:20:54.104Z,69.08
2018-12-22T16:21:54.098Z,68.90
2018-12-22T16:22:54.083Z,68.98
2018-12-22T16:23:54.074Z,68.59
2018-12-22T16:24:54.060Z,68.77
2018-12-22T16:25:54.053Z,68.80
2018-12-22T16:26:54.041Z,68.80
2018-12-22T16:27:54.026Z,69.52
2018-12-22T16:28:54.013Z,68.87
2018-12-22T16:29:54.001Z,68.70
2018-12-22T16:30:53.992Z,68.59
2018-12-22T16:31:53.980Z,68.80
2018-12-22T16:33:01.429Z,68.67
2018-12-22T16:34:18.440Z,68.59
2018-12-22T16:35:18.432Z,68.56
2018-12-22T16:36:18.416Z,68.59
2018-12-22T16:37:18.410Z,68.98
2018-12-22T16:38:18.394Z,68.67
2018-12-22T16:39:18.381Z,68.46
2018-12-22T16:40:18.371Z,68.87
2018-12-22T16:41:18.359Z,68.67
2018-12-22T16:42:18.348Z,68.46
2018-12-22T16:43:18.337Z,68.46
2018-12-22T16:44:18.336Z,68.77
2018-12-22T16:45:18.317Z,68.67
2018-12-22T16:46:18.305Z,68.46
2018-12-22T16:47:18.295Z,68.56
2018-12-22T16:48:18.283Z,68.67
2018-12-22T16:49:18.283Z,68.77
2018-12-22T16:50:18.271Z,68.67
2018-12-22T16:51:18.259Z,68.67
2018-12-22T16:52:18.243Z,68.56
2018-12-22T16:53:18.235Z,68.90
2018-12-22T16:54:18.225Z,68.67
2018-12-22T16:55:18.364Z,68.77
2018-12-22T16:56:18.196Z,68.56
2018-12-22T16:57:18.191Z,68.56
2018-12-22T16:58:18.175Z,68.77
2018-12-22T16:59:18.163Z,69.11
2018-12-22T17:00:18.155Z,69.01
2018-12-22T17:01:18.142Z,69.08
2018-12-22T17:02:18.134Z,69.01
2018-12-22T17:03:18.121Z,68.70
2018-12-22T17:04:18.109Z,69.28
2018-12-22T17:05:18.098Z,68.87
2018-12-22T17:06:18.097Z,68.90
2018-12-22T17:07:18.088Z,68.90
2018-12-22T17:08:18.068Z,69.01
2018-12-22T17:09:18.058Z,69.11
2018-12-22T17:10:18.047Z,68.90
2018-12-22T17:11:18.034Z,69.01
2018-12-22T17:12:18.024Z,68.90
2018-12-22T17:13:18.014Z,69.31
2018-12-22T17:14:18.002Z,69.31
2018-12-22T17:15:22.116Z,69.45
2018-12-22T17:16:17.980Z,69.76
2018-12-22T17:17:17.967Z,69.52
2018-12-22T17:18:17.958Z,69.83
2018-12-22T17:19:17.952Z,69.59
2018-12-22T17:20:17.935Z,70.45
2018-12-22T17:21:17.922Z,70.24
2018-12-22T17:22:17.910Z,70.24
2018-12-22T17:23:17.909Z,70.48
2018-12-22T17:24:17.891Z,70.66
2018-12-22T17:25:17.877Z,71.37
2018-12-22T17:26:17.872Z,71.37
2018-12-22T17:27:17.857Z,71.58
2018-12-22T17:28:17.845Z,71.61
2018-12-22T17:29:17.835Z,71.68
2018-12-22T17:30:17.827Z,72.02
2018-12-22T17:31:17.811Z,72.23
2018-12-22T17:32:17.801Z,72.44
2018-12-22T17:33:19.019Z,72.09
2018-12-22T17:34:17.776Z,72.09
2018-12-22T17:35:17.767Z,72.61
2018-12-22T17:36:17.762Z,72.61
2018-12-22T17:37:17.743Z,72.50
2018-12-22T17:38:17.735Z,72.19
2018-12-22T17:39:17.720Z,72.16
2018-12-22T17:40:17.711Z,71.99
2018-12-22T17:41:17.698Z,71.78
2018-12-22T17:42:17.790Z,72.09
2018-12-22T17:43:17.678Z,72.06
2018-12-22T17:44:17.673Z,72.09
2018-12-22T17:45:17.664Z,71.44
2018-12-22T17:46:17.645Z,71.34
2018-12-22T17:47:17.632Z,72.30